createdAt,value
2023-08-17T00:07:36.868Z,32.73
2023-08-17T00:22:38.577Z,30.07
2023-08-17T00:37:40.341Z,29.93
2023-08-17T00:52:43.293Z,28.90
2023-08-17T01:07:45.012Z,28.40
2023-08-17T01:22:50.078Z,29.17
2023-08-17T01:37:56.803Z,28.43
2023-08-17T01:52:58.551Z,26.53
2023-08-17T02:08:00.252Z,30.00
2023-08-17T02:23:02.395Z,27.43
2023-08-17T02:38:04.286Z,29.27
2023-08-17T02:53:06.078Z,28.80
2023-08-17T03:08:07.762Z,28.77
2023-08-17T03:23:09.730Z,26.13
2023-08-17T03:38:11.425Z,23.27
2023-08-17T03:53:13.164Z,26.97
2023-08-17T04:08:14.877Z,24.47
2023-08-17T04:23:16.553Z,25.17
2023-08-17T04:38:18.342Z,27.00
2023-08-17T04:53:20.116Z,26.87
2023-08-17T05:08:23.316Z,27.90
2023-08-17T05:23:25.106Z,29.60
2023-08-17T05:38:26.924Z,30.37
2023-08-17T05:53:28.616Z,30.67
2023-08-17T06:08:31.116Z,34.30
2023-08-17T06:23:32.831Z,35.40
2023-08-17T06:38:34.604Z,33.77
2023-08-17T06:53:36.318Z,36.10
2023-08-17T07:08:38.064Z,37.87
2023-08-17T07:23:39.854Z,37.63
2023-08-17T07:38:41.576Z,37.83
2023-08-17T07:53:43.326Z,39.40
2023-08-17T08:08:44.988Z,40.63
2023-08-17T08:23:46.690Z,38.50
2023-08-17T08:38:48.358Z,37.47
2023-08-17T08:53:57.030Z,38.50
2023-08-17T09:08:59.826Z,39.67
2023-08-17T09:24:01.561Z,41.03
2023-08-17T09:39:04.543Z,47.40
2023-08-17T09:54:06.906Z,39.03
2023-08-17T10:09:13.013Z,41.23
2023-08-17T10:24:15.099Z,44.03
2023-08-17T10:55:45.757Z,48.43
2023-08-17T11:11:05.511Z,44.57
2023-08-17T11:26:08.850Z,47.07
2023-08-17T11:41:18.579Z,46.57
2023-08-17T11:56:21.566Z,48.07
2023-08-17T12:11:26.277Z,46.03
2023-08-17T12:26:28.815Z,44.20
2023-08-17T12:41:30.682Z,45.77
2023-08-17T12:56:32.391Z,47.17
2023-08-17T13:11:34.063Z,44.90
2023-08-17T13:26:35.869Z,48.07
2023-08-17T13:41:37.638Z,42.33
2023-08-17T13:56:39.298Z,42.37
2023-08-17T14:11:41.004Z,45.90
2023-08-17T14:26:42.868Z,45.67
2023-08-17T14:41:46.763Z,42.17
2023-08-17T14:56:48.825Z,42.50
2023-08-17T15:11:51.979Z,40.43
2023-08-17T15:26:53.679Z,41.83
2023-08-17T15:41:55.514Z,41.43
2023-08-17T15:56:57.326Z,41.00
2023-08-17T16:11:59.135Z,48.20
2023-08-17T16:27:02.276Z,43.27
2023-08-17T16:42:04.073Z,46.57
2023-08-17T16:57:05.906Z,44.00
2023-08-17T17:12:07.729Z,43.80
2023-08-17T17:27:09.488Z,41.43
2023-08-17T17:42:11.188Z,41.40
2023-08-17T17:57:12.863Z,40.90
2023-08-17T18:12:14.561Z,40.20
2023-08-17T18:27:16.199Z,37.23
2023-08-17T18:42:17.950Z,39.20
2023-08-17T18:57:19.635Z,39.27
2023-08-17T19:12:21.606Z,36.40
2023-08-17T19:27:23.476Z,39.43
2023-08-17T19:42:25.184Z,41.20
2023-08-17T19:57:27.029Z,38.97
2023-08-17T20:12:29.785Z,36.67
2023-08-17T20:27:31.478Z,34.60
2023-08-17T20:42:33.184Z,38.57
2023-08-17T20:57:34.911Z,40.93
2023-08-17T21:12:36.671Z,39.40
2023-08-17T21:27:39.716Z,42.60
2023-08-17T21:42:41.377Z,41.07
2023-08-17T21:57:43.179Z,35.77
2023-08-17T22:12:44.848Z,34.50
2023-08-17T22:27:46.939Z,36.23
2023-08-17T22:42:48.597Z,34.33
2023-08-17T22:57:50.252Z,36.40
2023-08-17T23:12:51.949Z,37.33
2023-08-17T23:27:53.712Z,35.10
2023-08-17T23:42:55.424Z,34.27
2023-08-17T23:57:57.152Z,34.03
